sensor_id;sensor_type;location;lat;lon;timestamp;temperature;humidity
3281;DHT22;1652;51.31805600;6.20194400;2024-03-02T00:00:51;8.50;99.90
3281;DHT22;1652;51.31805600;6.20194400;2024-03-02T00:03:19;8.50;99.90
3281;DHT22;1652;51.31805600;6.20194400;2024-03-02T00:05:50;8.50;99.90
3281;DHT22;1652;51.31805600;6.20194400;2024-03-02T00:08:27;8.40;99.90
3281;DHT22;1652;51.31805600;6.20194400;2024-03-02T00:10:59;8.50;99.90
3281;DHT22;1652;51.31805600;6.20194400;2024-03-02T00:13:26;8.60;99.90
3281;DHT22;1652;51.31805600;6.20194400;2024-03-02T00:15:55;8.50;99.90
3281;DHT22;1652;51.31805600;6.20194400;2024-03-02T00:18:32;8.60;99.90
3281;DHT22;1652;51.31805600;6.20194400;2024-03-02T00:21:00;8.60;99.90
3281;DHT22;1652;51.31805600;6.20194400;2024-03-02T00:23:30;8.60;99.90
3281;DHT22;1652;51.31805600;6.20194400;2024-03-02T00:26:01;8.70;99.90
3281;DHT22;1652;51.31805600;6.20194400;2024-03-02T00:28:34;8.70;99.90
3281;DHT22;1652;51.31805600;6.20194400;2024-03-02T00:33:44;8.80;86.60
3281;DHT22;1652;51.31805600;6.20194400;2024-03-02T00:36:17;8.80;75.90
3281;DHT22;1652;51.31805600;6.20194400;2024-03-02T00:38:49;8.80;83.70
3281;DHT22;1652;51.31805600;6.20194400;2024-03-02T00:41:27;8.80;78.50
3281;DHT22;1652;51.31805600;6.20194400;2024-03-02T00:44:02;8.90;75.50
3281;DHT22;1652;51.31805600;6.20194400;2024-03-02T00:46:34;8.90;81.30
3281;DHT22;1652;51.31805600;6.20194400;2024-03-02T00:49:03;9.00;68.90
3281;DHT22;1652;51.31805600;6.20194400;2024-03-02T00:51:31;9.00;39.40
3281;DHT22;1652;51.31805600;6.20194400;2024-03-02T00:54:01;9.00;31.20
3281;DHT22;1652;51.31805600;6.20194400;2024-03-02T00:56:32;9.00;27.80
3281;DHT22;1652;51.31805600;6.20194400;2024-03-02T00:58:59;9.10;8.90
3281;DHT22;1652;51.31805600;6.20194400;2024-03-02T01:01:26;9.20;15.60
3281;DHT22;1652;51.31805600;6.20194400;2024-03-02T01:03:53;9.20;8.00
3281;DHT22;1652;51.31805600;6.20194400;2024-03-02T01:06:20;9.20;7.90
3281;DHT22;1652;51.31805600;6.20194400;2024-03-02T01:08:49;9.20;13.70
3281;DHT22;1652;51.31805600;6.20194400;2024-03-02T01:11:20;9.20;10.30
3281;DHT22;1652;51.31805600;6.20194400;2024-03-02T01:13:50;9.20;13.90
3281;DHT22;1652;51.31805600;6.20194400;2024-03-02T01:16:17;9.10;26.40
3281;DHT22;1652;51.31805600;6.20194400;2024-03-02T01:18:44;9.20;24.50
3281;DHT22;1652;51.31805600;6.20194400;2024-03-02T01:21:11;9.10;61.30
3281;DHT22;1652;51.31805600;6.20194400;2024-03-02T01:23:38;9.20;69.50
3281;DHT22;1652;51.31805600;6.20194400;2024-03-02T01:26:05;9.30;50.30
3281;DHT22;1652;51.31805600;6.20194400;2024-03-02T01:28:32;9.30;13.30
3281;DHT22;1652;51.31805600;6.20194400;2024-03-02T01:30:59;9.30;17.50
3281;DHT22;1652;51.31805600;6.20194400;2024-03-02T01:33:26;9.40;15.50
3281;DHT22;1652;51.31805600;6.20194400;2024-03-02T01:35:53;9.40;5.20
3281;DHT22;1652;51.31805600;6.20194400;2024-03-02T01:38:20;9.40;4.70
3281;DHT22;1652;51.31805600;6.20194400;2024-03-02T01:40:47;9.50;1.10
3281;DHT22;1652;51.31805600;6.20194400;2024-03-02T01:43:14;9.50;3.30
3281;DHT22;1652;51.31805600;6.20194400;2024-03-02T01:45:41;9.60;1.00
3281;DHT22;1652;51.31805600;6.20194400;2024-03-02T01:48:08;9.60;1.00
3281;DHT22;1652;51.31805600;6.20194400;2024-03-02T01:50:35;9.60;1.00
3281;DHT22;1652;51.31805600;6.20194400;2024-03-02T01:53:02;9.50;1.00
3281;DHT22;1652;51.31805600;6.20194400;2024-03-02T01:55:30;9.50;1.00
3281;DHT22;1652;51.31805600;6.20194400;2024-03-02T01:57:58;9.50;32.80
3281;DHT22;1652;51.31805600;6.20194400;2024-03-02T02:00:25;9.40;1.00
3281;DHT22;1652;51.31805600;6.20194400;2024-03-02T02:02:54;9.30;1.00
3281;DHT22;1652;51.31805600;6.20194400;2024-03-02T02:05:21;9.10;99.90
3281;DHT22;1652;51.31805600;6.20194400;2024-03-02T02:07:49;9.00;1.00
3281;DHT22;1652;51.31805600;6.20194400;2024-03-02T02:10:16;8.80;1.00
3281;DHT22;1652;51.31805600;6.20194400;2024-03-02T02:12:43;8.80;1.00
3281;DHT22;1652;51.31805600;6.20194400;2024-03-02T02:15:27;8.80;1.00
3281;DHT22;1652;51.31805600;6.20194400;2024-03-02T02:17:55;8.80;1.00
3281;DHT22;1652;51.31805600;6.20194400;2024-03-02T02:20:23;8.70;99.90
3281;DHT22;1652;51.31805600;6.20194400;2024-03-02T02:23:00;8.70;1.00
3281;DHT22;1652;51.31805600;6.20194400;2024-03-02T02:25:29;8.70;1.00
3281;DHT22;1652;51.31805600;6.20194400;2024-03-02T02:27:57;8.70;1.00
3281;DHT22;1652;51.31805600;6.20194400;2024-03-02T02:30:26;8.70;99.90
3281;DHT22;1652;51.31805600;6.20194400;2024-03-02T02:32:53;8.70;1.00
3281;DHT22;1652;51.31805600;6.20194400;2024-03-02T02:35:20;8.70;69.40
3281;DHT22;1652;51.31805600;6.20194400;2024-03-02T02:37:48;8.70;1.00
3281;DHT22;1652;51.31805600;6.20194400;2024-03-02T02:40:16;8.70;1.00
3281;DHT22;1652;51.31805600;6.20194400;2024-03-02T02:42:43;8.70;1.00
3281;DHT22;1652;51.31805600;6.20194400;2024-03-02T02:45:10;8.80;99.90
3281;DHT22;1652;51.31805600;6.20194400;2024-03-02T02:47:40;8.80;99.90
3281;DHT22;1652;51.31805600;6.20194400;2024-03-02T02:50:08;8.80;1.00
3281;DHT22;1652;51.31805600;6.20194400;2024-03-02T02:52:36;8.80;1.00
3281;DHT22;1652;51.31805600;6.20194400;2024-03-02T02:55:06;8.80;99.90
3281;DHT22;1652;51.31805600;6.20194400;2024-03-02T02:57:34;8.80;99.90
3281;DHT22;1652;51.31805600;6.20194400;2024-03-02T03:02:43;8.80;1.00
3281;DHT22;1652;51.31805600;6.20194400;2024-03-02T03:05:11;8.70;1.80
3281;DHT22;1652;51.31805600;6.20194400;2024-03-02T03:07:40;8.70;1.00
3281;DHT22;1652;51.31805600;6.20194400;2024-03-02T03:10:07;8.70;1.00
3281;DHT22;1652;51.31805600;6.20194400;2024-03-02T03:12:35;8.70;1.00
3281;DHT22;1652;51.31805600;6.20194400;2024-03-02T03:15:03;8.60;19.80
3281;DHT22;1652;51.31805600;6.20194400;2024-03-02T03:17:31;8.60;1.00
3281;DHT22;1652;51.31805600;6.20194400;2024-03-02T03:19:58;8.60;1.00
3281;DHT22;1652;51.31805600;6.20194400;2024-03-02T03:22:25;8.60;1.00
3281;DHT22;1652;51.31805600;6.20194400;2024-03-02T03:24:52;8.60;1.00
3281;DHT22;1652;51.31805600;6.20194400;2024-03-02T03:27:22;8.50;1.00
3281;DHT22;1652;51.31805600;6.20194400;2024-03-02T03:29:49;8.40;1.00
3281;DHT22;1652;51.31805600;6.20194400;2024-03-02T03:32:16;8.30;56.30
3281;DHT22;1652;51.31805600;6.20194400;2024-03-02T03:34:43;8.30;99.90
3281;DHT22;1652;51.31805600;6.20194400;2024-03-02T03:37:10;8.20;1.00
3281;DHT22;1652;51.31805600;6.20194400;2024-03-02T03:39:37;8.20;99.90
3281;DHT22;1652;51.31805600;6.20194400;2024-03-02T03:42:04;8.00;99.90
3281;DHT22;1652;51.31805600;6.20194400;2024-03-02T03:44:31;8.10;99.90
3281;DHT22;1652;51.31805600;6.20194400;2024-03-02T03:46:58;8.20;1.00
3281;DHT22;1652;51.31805600;6.20194400;2024-03-02T03:49:25;8.20;1.00
3281;DHT22;1652;51.31805600;6.20194400;2024-03-02T03:51:52;8.20;1.00
3281;DHT22;1652;51.31805600;6.20194400;2024-03-02T03:54:19;8.10;99.90
3281;DHT22;1652;51.31805600;6.20194400;2024-03-02T03:56:46;8.10;15.50
3281;DHT22;1652;51.31805600;6.20194400;2024-03-02T03:59:13;8.00;99.90
3281;DHT22;1652;51.31805600;6.20194400;2024-03-02T04:01:40;7.90;99.90
3281;DHT22;1652;51.31805600;6.20194400;2024-03-02T04:04:07;7.90;1.00
3281;DHT22;1652;51.31805600;6.20194400;2024-03-02T04:06:34;7.80;83.40
3281;DHT22;1652;51.31805600;6.20194400;2024-03-02T04:09:01;7.80;1.00
3281;DHT22;1652;51.31805600;6.20194400;2024-03-02T04:11:27;7.70;99.90
3281;DHT22;1652;51.31805600;6.20194400;2024-03-02T04:13:54;7.80;99.90
3281;DHT22;1652;51.31805600;6.20194400;2024-03-02T04:16:24;7.80;99.90
3281;DHT22;1652;51.31805600;6.20194400;2024-03-02T04:18:51;7.90;1.00
3281;DHT22;1652;51.31805600;6.20194400;2024-03-02T04:21:18;7.80;1.00
3281;DHT22;1652;51.31805600;6.20194400;2024-03-02T04:23:45;7.80;99.90
3281;DHT22;1652;51.31805600;6.20194400;2024-03-02T04:26:12;7.90;1.00
3281;DHT22;1652;51.31805600;6.20194400;2024-03-02T04:28:39;7.90;1.00
3281;DHT22;1652;51.31805600;6.20194400;2024-03-02T04:31:06;8.10;1.00
3281;DHT22;1652;51.31805600;6.20194400;2024-03-02T04:33:33;8.10;99.90
3281;DHT22;1652;51.31805600;6.20194400;2024-03-02T04:36:00;8.20;1.00
3281;DHT22;1652;51.31805600;6.20194400;2024-03-02T04:38:26;8.10;1.00
3281;DHT22;1652;51.31805600;6.20194400;2024-03-02T04:40:54;8.10;1.00
3281;DHT22;1652;51.31805600;6.20194400;2024-03-02T04:43:21;8.10;1.00
3281;DHT22;1652;51.31805600;6.20194400;2024-03-02T04:45:50;8.00;29.70
3281;DHT22;1652;51.31805600;6.20194400;2024-03-02T04:48:16;8.00;99.90
3281;DHT22;1652;51.31805600;6.20194400;2024-03-02T04:50:44;8.00;1.00
3281;DHT22;1652;51.31805600;6.20194400;2024-03-02T04:53:10;8.00;1.00
3281;DHT22;1652;51.31805600;6.20194400;2024-03-02T04:55:37;8.00;1.00
3281;DHT22;1652;51.31805600;6.20194400;2024-03-02T04:58:07;8.00;1.00
3281;DHT22;1652;51.31805600;6.20194400;2024-03-02T05:00:34;7.90;1.00
3281;DHT22;1652;51.31805600;6.20194400;2024-03-02T05:03:05;7.90;1.00
3281;DHT22;1652;51.31805600;6.20194400;2024-03-02T05:05:31;7.90;1.00
3281;DHT22;1652;51.31805600;6.20194400;2024-03-02T05:07:58;7.90;1.00
3281;DHT22;1652;51.31805600;6.20194400;2024-03-02T05:10:25;7.90;1.00
3281;DHT22;1652;51.31805600;6.20194400;2024-03-02T05:12:52;8.00;1.00
3281;DHT22;1652;51.31805600;6.20194400;2024-03-02T05:15:27;8.00;1.00
3281;DHT22;1652;51.31805600;6.20194400;2024-03-02T05:17:54;8.00;1.00
3281;DHT22;1652;51.31805600;6.20194400;2024-03-02T05:20:21;7.90;1.00
3281;DHT22;1652;51.31805600;6.20194400;2024-03-02T05:22:48;7.80;1.00
3281;DHT22;1652;51.31805600;6.20194400;2024-03-02T05:25:16;7.80;1.00
3281;DHT22;1652;51.31805600;6.20194400;2024-03-02T05:27:43;7.80;1.00
3281;DHT22;1652;51.31805600;6.20194400;2024-03-02T05:30:10;7.80;1.00
3281;DHT22;1652;51.31805600;6.20194400;2024-03-02T05:32:37;7.70;1.00
3281;DHT22;1652;51.31805600;6.20194400;2024-03-02T05:35:05;7.70;1.00
3281;DHT22;1652;51.31805600;6.20194400;2024-03-02T05:37:32;7.60;1.00
3281;DHT22;1652;51.31805600;6.20194400;2024-03-02T05:39:59;7.60;1.00
3281;DHT22;1652;51.31805600;6.20194400;2024-03-02T05:42:26;7.70;1.00
3281;DHT22;1652;51.31805600;6.20194400;2024-03-02T05:44:54;7.70;1.00
3281;DHT22;1652;51.31805600;6.20194400;2024-03-02T05:47:21;7.70;1.00
3281;DHT22;1652;51.31805600;6.20194400;2024-03-02T05:49:48;7.60;1.00
3281;DHT22;1652;51.31805600;6.20194400;2024-03-02T05:52:15;7.70;1.00
3281;DHT22;1652;51.31805600;6.20194400;2024-03-02T05:54:42;7.60;1.00
3281;DHT22;1652;51.31805600;6.20194400;2024-03-02T05:57:08;7.70;1.00
3281;DHT22;1652;51.31805600;6.20194400;2024-03-02T05:59:59;7.80;99.90
3281;DHT22;1652;51.31805600;6.20194400;2024-03-02T06:02:26;7.90;99.90
3281;DHT22;1652;51.31805600;6.20194400;2024-03-02T06:04:55;7.80;99.90
3281;DHT22;1652;51.31805600;6.20194400;2024-03-02T06:07:22;7.80;99.90
3281;DHT22;1652;51.31805600;6.20194400;2024-03-02T06:09:49;7.70;99.90
3281;DHT22;1652;51.31805600;6.20194400;2024-03-02T06:12:18;7.70;99.90
3281;DHT22;1652;51.31805600;6.20194400;2024-03-02T06:14:45;7.60;99.90
3281;DHT22;1652;51.31805600;6.20194400;2024-03-02T06:17:12;7.60;99.90
3281;DHT22;1652;51.31805600;6.20194400;2024-03-02T06:19:39;7.70;99.90
3281;DHT22;1652;51.31805600;6.20194400;2024-03-02T06:22:06;7.70;99.90
3281;DHT22;1652;51.31805600;6.20194400;2024-03-02T06:24:36;7.80;99.90
3281;DHT22;1652;51.31805600;6.20194400;2024-03-02T06:27:04;7.80;66.10
3281;DHT22;1652;51.31805600;6.20194400;2024-03-02T06:29:34;7.80;22.70
3281;DHT22;1652;51.31805600;6.20194400;2024-03-02T06:32:01;7.90;1.00
3281;DHT22;1652;51.31805600;6.20194400;2024-03-02T06:34:28;8.10;1.00
3281;DHT22;1652;51.31805600;6.20194400;2024-03-02T06:36:55;8.10;1.00
3281;DHT22;1652;51.31805600;6.20194400;2024-03-02T06:39:22;8.10;1.00
3281;DHT22;1652;51.31805600;6.20194400;2024-03-02T06:41:49;8.20;1.00
3281;DHT22;1652;51.31805600;6.20194400;2024-03-02T06:44:16;8.20;1.00
3281;DHT22;1652;51.31805600;6.20194400;2024-03-02T06:46:43;8.10;1.00
3281;DHT22;1652;51.31805600;6.20194400;2024-03-02T06:49:10;8.10;1.00
3281;DHT22;1652;51.31805600;6.20194400;2024-03-02T06:51:39;8.10;1.00
3281;DHT22;1652;51.31805600;6.20194400;2024-03-02T06:54:08;8.00;1.00
3281;DHT22;1652;51.31805600;6.20194400;2024-03-02T06:56:35;8.00;1.00
3281;DHT22;1652;51.31805600;6.20194400;2024-03-02T06:59:02;8.00;1.00
3281;DHT22;1652;51.31805600;6.20194400;2024-03-02T07:01:29;8.00;1.00
3281;DHT22;1652;51.31805600;6.20194400;2024-03-02T07:03:56;7.90;1.00
3281;DHT22;1652;51.31805600;6.20194400;2024-03-02T07:06:23;7.90;1.00
3281;DHT22;1652;51.31805600;6.20194400;2024-03-02T07:08:50;7.90;1.00
3281;DHT22;1652;51.31805600;6.20194400;2024-03-02T07:11:17;8.00;1.00
3281;DHT22;1652;51.31805600;6.20194400;2024-03-02T07:13:44;8.00;1.00
3281;DHT22;1652;51.31805600;6.20194400;2024-03-02T07:16:11;7.90;1.00
3281;DHT22;1652;51.31805600;6.20194400;2024-03-02T07:18:38;7.80;1.00
3281;DHT22;1652;51.31805600;6.20194400;2024-03-02T07:21:08;7.60;1.00
3281;DHT22;1652;51.31805600;6.20194400;2024-03-02T07:23:35;7.50;25.30
3281;DHT22;1652;51.31805600;6.20194400;2024-03-02T07:26:02;7.40;90.20
3281;DHT22;1652;51.31805600;6.20194400;2024-03-02T07:28:32;7.30;99.90
3281;DHT22;1652;51.31805600;6.20194400;2024-03-02T07:31:01;7.30;99.90
3281;DHT22;1652;51.31805600;6.20194400;2024-03-02T07:33:28;7.30;99.90
3281;DHT22;1652;51.31805600;6.20194400;2024-03-02T07:35:55;7.40;99.90
3281;DHT22;1652;51.31805600;6.20194400;2024-03-02T07:38:23;7.60;99.90
3281;DHT22;1652;51.31805600;6.20194400;2024-03-02T07:40:50;7.90;99.90
3281;DHT22;1652;51.31805600;6.20194400;2024-03-02T07:43:17;8.10;99.90
3281;DHT22;1652;51.31805600;6.20194400;2024-03-02T07:45:46;8.40;1.00
3281;DHT22;1652;51.31805600;6.20194400;2024-03-02T07:48:14;9.00;1.00
3281;DHT22;1652;51.31805600;6.20194400;2024-03-02T07:50:41;9.70;99.90
3281;DHT22;1652;51.31805600;6.20194400;2024-03-02T07:53:08;10.70;99.90
3281;DHT22;1652;51.31805600;6.20194400;2024-03-02T07:55:35;11.40;1.00
3281;DHT22;1652;51.31805600;6.20194400;2024-03-02T07:58:02;12.00;1.00
3281;DHT22;1652;51.31805600;6.20194400;2024-03-02T08:00:29;12.40;1.00
3281;DHT22;1652;51.31805600;6.20194400;2024-03-02T08:02:56;12.80;1.00
3281;DHT22;1652;51.31805600;6.20194400;2024-03-02T08:05:23;13.10;99.90
3281;DHT22;1652;51.31805600;6.20194400;2024-03-02T08:07:50;13.20;99.90
3281;DHT22;1652;51.31805600;6.20194400;2024-03-02T08:10:19;13.40;99.90
3281;DHT22;1652;51.31805600;6.20194400;2024-03-02T08:12:47;13.50;99.90
3281;DHT22;1652;51.31805600;6.20194400;2024-03-02T08:15:14;13.50;99.90
3281;DHT22;1652;51.31805600;6.20194400;2024-03-02T08:17:41;13.40;99.90
3281;DHT22;1652;51.31805600;6.20194400;2024-03-02T08:20:16;13.50;99.90
3281;DHT22;1652;51.31805600;6.20194400;2024-03-02T08:22:43;13.40;99.90
3281;DHT22;1652;51.31805600;6.20194400;2024-03-02T08:25:11;13.50;99.90
3281;DHT22;1652;51.31805600;6.20194400;2024-03-02T08:27:39;13.70;99.90
3281;DHT22;1652;51.31805600;6.20194400;2024-03-02T08:30:07;13.30;99.90
3281;DHT22;1652;51.31805600;6.20194400;2024-03-02T08:32:36;12.90;99.90
3281;DHT22;1652;51.31805600;6.20194400;2024-03-02T08:35:04;12.60;99.90
3281;DHT22;1652;51.31805600;6.20194400;2024-03-02T08:37:31;12.60;99.90
3281;DHT22;1652;51.31805600;6.20194400;2024-03-02T08:39:58;12.50;99.90
3281;DHT22;1652;51.31805600;6.20194400;2024-03-02T08:42:26;12.40;99.90
3281;DHT22;1652;51.31805600;6.20194400;2024-03-02T08:44:53;12.20;99.90
3281;DHT22;1652;51.31805600;6.20194400;2024-03-02T08:47:20;12.10;99.90
3281;DHT22;1652;51.31805600;6.20194400;2024-03-02T08:49:46;12.10;99.90
3281;DHT22;1652;51.31805600;6.20194400;2024-03-02T08:52:13;11.80;97.30
3281;DHT22;1652;51.31805600;6.20194400;2024-03-02T08:54:40;11.50;62.80
3281;DHT22;1652;51.31805600;6.20194400;2024-03-02T08:57:07;11.30;29.70
3281;DHT22;1652;51.31805600;6.20194400;2024-03-02T08:59:34;11.10;36.30
3281;DHT22;1652;51.31805600;6.20194400;2024-03-02T09:02:01;11.00;41.80
3281;DHT22;1652;51.31805600;6.20194400;2024-03-02T09:04:28;10.80;86.30
3281;DHT22;1652;51.31805600;6.20194400;2024-03-02T09:07:00;10.80;99.90
3281;DHT22;1652;51.31805600;6.20194400;2024-03-02T09:09:27;10.80;99.90
3281;DHT22;1652;51.31805600;6.20194400;2024-03-02T09:11:54;10.80;99.90
3281;DHT22;1652;51.31805600;6.20194400;2024-03-02T09:14:24;10.80;99.70
3281;DHT22;1652;51.31805600;6.20194400;2024-03-02T09:16:51;10.90;99.90
3281;DHT22;1652;51.31805600;6.20194400;2024-03-02T09:19:18;10.90;99.90
3281;DHT22;1652;51.31805600;6.20194400;2024-03-02T09:21:45;11.00;99.90
3281;DHT22;1652;51.31805600;6.20194400;2024-03-02T09:24:12;11.00;75.80
3281;DHT22;1652;51.31805600;6.20194400;2024-03-02T09:26:43;11.00;96.20
3281;DHT22;1652;51.31805600;6.20194400;2024-03-02T09:29:11;11.10;90.70
3281;DHT22;1652;51.31805600;6.20194400;2024-03-02T09:31:41;11.10;93.50
3281;DHT22;1652;51.31805600;6.20194400;2024-03-02T09:34:08;11.10;84.50
3281;DHT22;1652;51.31805600;6.20194400;2024-03-02T09:36:36;11.20;51.00
3281;DHT22;1652;51.31805600;6.20194400;2024-03-02T09:39:03;11.10;54.70
3281;DHT22;1652;51.31805600;6.20194400;2024-03-02T09:41:33;11.10;40.60
3281;DHT22;1652;51.31805600;6.20194400;2024-03-02T09:44:00;11.10;22.30
3281;DHT22;1652;51.31805600;6.20194400;2024-03-02T09:46:27;11.10;57.70
3281;DHT22;1652;51.31805600;6.20194400;2024-03-02T09:48:55;11.10;46.50
3281;DHT22;1652;51.31805600;6.20194400;2024-03-02T09:51:22;11.20;98.40
3281;DHT22;1652;51.31805600;6.20194400;2024-03-02T09:53:50;11.40;97.60
3281;DHT22;1652;51.31805600;6.20194400;2024-03-02T09:56:17;11.50;58.00
3281;DHT22;1652;51.31805600;6.20194400;2024-03-02T09:58:45;11.50;45.10
3281;DHT22;1652;51.31805600;6.20194400;2024-03-02T10:01:11;11.40;49.10
3281;DHT22;1652;51.31805600;6.20194400;2024-03-02T10:03:39;11.30;29.90
3281;DHT22;1652;51.31805600;6.20194400;2024-03-02T10:06:24;11.30;44.40
3281;DHT22;1652;51.31805600;6.20194400;2024-03-02T10:08:52;11.40;99.90
3281;DHT22;1652;51.31805600;6.20194400;2024-03-02T10:11:30;11.50;90.10
3281;DHT22;1652;51.31805600;6.20194400;2024-03-02T10:14:08;11.50;50.10
3281;DHT22;1652;51.31805600;6.20194400;2024-03-02T10:16:39;11.50;68.50
3281;DHT22;1652;51.31805600;6.20194400;2024-03-02T10:21:49;11.50;5.20
3281;DHT22;1652;51.31805600;6.20194400;2024-03-02T10:24:20;11.50;20.00
3281;DHT22;1652;51.31805600;6.20194400;2024-03-02T10:26:47;11.60;1.00
3281;DHT22;1652;51.31805600;6.20194400;2024-03-02T10:29:14;11.60;1.00
3281;DHT22;1652;51.31805600;6.20194400;2024-03-02T10:31:43;11.60;1.00
3281;DHT22;1652;51.31805600;6.20194400;2024-03-02T10:34:10;11.70;1.00
3281;DHT22;1652;51.31805600;6.20194400;2024-03-02T10:36:41;11.80;1.00
3281;DHT22;1652;51.31805600;6.20194400;2024-03-02T10:39:09;11.70;1.00
3281;DHT22;1652;51.31805600;6.20194400;2024-03-02T10:41:37;11.70;1.00
3281;DHT22;1652;51.31805600;6.20194400;2024-03-02T10:44:06;11.60;1.00
3281;DHT22;1652;51.31805600;6.20194400;2024-03-02T10:46:34;11.70;1.00
3281;DHT22;1652;51.31805600;6.20194400;2024-03-02T10:49:03;11.70;1.00
3281;DHT22;1652;51.31805600;6.20194400;2024-03-02T10:51:34;11.80;1.00
3281;DHT22;1652;51.31805600;6.20194400;2024-03-02T10:54:04;11.80;1.00
3281;DHT22;1652;51.31805600;6.20194400;2024-03-02T10:56:39;11.80;1.00
3281;DHT22;1652;51.31805600;6.20194400;2024-03-02T10:59:24;11.80;1.00
3281;DHT22;1652;51.31805600;6.20194400;2024-03-02T11:01:58;11.80;51.40
3281;DHT22;1652;51.31805600;6.20194400;2024-03-02T11:04:31;11.80;1.00
3281;DHT22;1652;51.31805600;6.20194400;2024-03-02T11:07:08;11.80;1.00
3281;DHT22;1652;51.31805600;6.20194400;2024-03-02T11:09:59;11.80;1.00
3281;DHT22;1652;51.31805600;6.20194400;2024-03-02T11:12:28;11.80;1.00
3281;DHT22;1652;51.31805600;6.20194400;2024-03-02T11:14:56;11.80;1.00
3281;DHT22;1652;51.31805600;6.20194400;2024-03-02T11:17:24;11.80;1.00
3281;DHT22;1652;51.31805600;6.20194400;2024-03-02T11:19:52;11.80;1.00
3281;DHT22;1652;51.31805600;6.20194400;2024-03-02T11:22:19;11.90;1.00
3281;DHT22;1652;51.31805600;6.20194400;2024-03-02T11:24:50;11.90;1.00
3281;DHT22;1652;51.31805600;6.20194400;2024-03-02T11:33:03;12.20;1.00
3281;DHT22;1652;51.31805600;6.20194400;2024-03-02T11:35:41;12.30;1.00
3281;DHT22;1652;51.31805600;6.20194400;2024-03-02T11:38:15;12.20;1.00
3281;DHT22;1652;51.31805600;6.20194400;2024-03-02T11:40:44;12.10;9.30
3281;DHT22;1652;51.31805600;6.20194400;2024-03-02T11:43:11;12.20;1.00
3281;DHT22;1652;51.31805600;6.20194400;2024-03-02T11:45:38;12.30;13.20
3281;DHT22;1652;51.31805600;6.20194400;2024-03-02T11:48:14;12.30;1.00
3281;DHT22;1652;51.31805600;6.20194400;2024-03-02T11:50:46;12.40;1.00
3281;DHT22;1652;51.31805600;6.20194400;2024-03-02T11:53:13;12.50;1.00
3281;DHT22;1652;51.31805600;6.20194400;2024-03-02T11:55:41;12.50;1.00
3281;DHT22;1652;51.31805600;6.20194400;2024-03-02T11:58:08;12.50;1.00
3281;DHT22;1652;51.31805600;6.20194400;2024-03-02T12:00:35;12.50;1.00
3281;DHT22;1652;51.31805600;6.20194400;2024-03-02T12:03:05;12.40;1.00
3281;DHT22;1652;51.31805600;6.20194400;2024-03-02T12:05:33;12.40;1.00
3281;DHT22;1652;51.31805600;6.20194400;2024-03-02T12:08:01;12.50;1.00
3281;DHT22;1652;51.31805600;6.20194400;2024-03-02T12:10:29;12.50;1.00
3281;DHT22;1652;51.31805600;6.20194400;2024-03-02T12:12:57;12.60;1.00
3281;DHT22;1652;51.31805600;6.20194400;2024-03-02T12:15:32;12.80;1.00
3281;DHT22;1652;51.31805600;6.20194400;2024-03-02T12:18:00;13.00;1.00
3281;DHT22;1652;51.31805600;6.20194400;2024-03-02T12:20:29;13.10;1.00
3281;DHT22;1652;51.31805600;6.20194400;2024-03-02T12:22:58;13.30;24.20
3281;DHT22;1652;51.31805600;6.20194400;2024-03-02T12:25:25;13.40;37.30
3281;DHT22;1652;51.31805600;6.20194400;2024-03-02T12:27:57;13.50;17.40
3281;DHT22;1652;51.31805600;6.20194400;2024-03-02T12:30:27;13.60;26.90
3281;DHT22;1652;51.31805600;6.20194400;2024-03-02T12:32:56;13.70;93.90
3281;DHT22;1652;51.31805600;6.20194400;2024-03-02T12:35:24;13.60;58.00
3281;DHT22;1652;51.31805600;6.20194400;2024-03-02T12:37:53;13.60;2.70
3281;DHT22;1652;51.31805600;6.20194400;2024-03-02T12:40:21;13.60;1.00
3281;DHT22;1652;51.31805600;6.20194400;2024-03-02T12:42:50;13.60;1.00
3281;DHT22;1652;51.31805600;6.20194400;2024-03-02T12:45:18;13.60;1.00
3281;DHT22;1652;51.31805600;6.20194400;2024-03-02T12:47:52;13.50;90.40
3281;DHT22;1652;51.31805600;6.20194400;2024-03-02T12:50:21;13.50;2.50
3281;DHT22;1652;51.31805600;6.20194400;2024-03-02T12:52:54;13.60;9.80
3281;DHT22;1652;51.31805600;6.20194400;2024-03-02T12:55:23;13.70;25.80
3281;DHT22;1652;51.31805600;6.20194400;2024-03-02T12:57:51;13.80;40.40
3281;DHT22;1652;51.31805600;6.20194400;2024-03-02T13:00:20;13.80;99.90
3281;DHT22;1652;51.31805600;6.20194400;2024-03-02T13:02:50;13.90;99.90
3281;DHT22;1652;51.31805600;6.20194400;2024-03-02T13:05:18;14.00;99.90
3281;DHT22;1652;51.31805600;6.20194400;2024-03-02T13:07:50;14.00;99.90
3281;DHT22;1652;51.31805600;6.20194400;2024-03-02T13:10:17;14.00;99.90
3281;DHT22;1652;51.31805600;6.20194400;2024-03-02T13:12:45;14.00;99.90
3281;DHT22;1652;51.31805600;6.20194400;2024-03-02T13:15:12;14.00;99.90
3281;DHT22;1652;51.31805600;6.20194400;2024-03-02T13:17:44;14.10;99.90
3281;DHT22;1652;51.31805600;6.20194400;2024-03-02T13:20:12;14.10;99.90
3281;DHT22;1652;51.31805600;6.20194400;2024-03-02T13:22:41;14.20;99.90
3281;DHT22;1652;51.31805600;6.20194400;2024-03-02T13:25:08;14.20;99.90
3281;DHT22;1652;51.31805600;6.20194400;2024-03-02T13:27:38;14.20;99.90
3281;DHT22;1652;51.31805600;6.20194400;2024-03-02T13:30:06;14.10;99.90
3281;DHT22;1652;51.31805600;6.20194400;2024-03-02T13:32:34;14.00;99.90
3281;DHT22;1652;51.31805600;6.20194400;2024-03-02T13:35:01;14.00;99.90
3281;DHT22;1652;51.31805600;6.20194400;2024-03-02T13:37:29;14.00;99.90
3281;DHT22;1652;51.31805600;6.20194400;2024-03-02T13:39:56;13.90;99.90
3281;DHT22;1652;51.31805600;6.20194400;2024-03-02T13:42:23;13.80;53.60
3281;DHT22;1652;51.31805600;6.20194400;2024-03-02T13:44:50;13.90;6.00
3281;DHT22;1652;51.31805600;6.20194400;2024-03-02T13:47:19;13.90;31.00
3281;DHT22;1652;51.31805600;6.20194400;2024-03-02T13:49:46;13.90;2.60
3281;DHT22;1652;51.31805600;6.20194400;2024-03-02T13:52:15;13.80;1.00
3281;DHT22;1652;51.31805600;6.20194400;2024-03-02T13:54:45;13.90;1.00
3281;DHT22;1652;51.31805600;6.20194400;2024-03-02T13:57:13;14.00;1.00
3281;DHT22;1652;51.31805600;6.20194400;2024-03-02T13:59:41;13.90;1.00
3281;DHT22;1652;51.31805600;6.20194400;2024-03-02T14:02:09;13.90;1.00
3281;DHT22;1652;51.31805600;6.20194400;2024-03-02T14:04:36;13.90;1.00
3281;DHT22;1652;51.31805600;6.20194400;2024-03-02T14:07:05;13.80;1.00
3281;DHT22;1652;51.31805600;6.20194400;2024-03-02T14:09:35;13.80;1.00
3281;DHT22;1652;51.31805600;6.20194400;2024-03-02T14:12:04;13.80;1.00
3281;DHT22;1652;51.31805600;6.20194400;2024-03-02T14:14:31;13.80;1.00
3281;DHT22;1652;51.31805600;6.20194400;2024-03-02T14:16:59;13.80;1.00
3281;DHT22;1652;51.31805600;6.20194400;2024-03-02T14:19:33;13.80;1.00